sensor_id;sensor_type;location;lat;lon;timestamp;P1;durP1;ratioP1;P2;durP2;ratioP2
21927;SDS011;11128;51.096;17.190;2023-06-04T00:02:58;5.25;;;1.83;;
21927;SDS011;11128;51.096;17.190;2023-06-04T00:08:00;3.15;;;1.85;;
21927;SDS011;11128;51.096;17.190;2023-06-04T00:13:01;5.55;;;2.40;;
21927;SDS011;11128;51.096;17.190;2023-06-04T00:18:03;5.28;;;2.10;;
21927;SDS011;11128;51.096;17.190;2023-06-04T00:23:04;2.97;;;1.98;;
21927;SDS011;11128;51.096;17.190;2023-06-04T00:28:05;4.00;;;2.47;;
21927;SDS011;11128;51.096;17.190;2023-06-04T00:33:07;6.68;;;2.47;;
21927;SDS011;11128;51.096;17.190;2023-06-04T00:38:08;3.33;;;2.05;;
21927;SDS011;11128;51.096;17.190;2023-06-04T00:43:10;6.00;;;2.88;;
21927;SDS011;11128;51.096;17.190;2023-06-04T00:48:14;7.00;;;3.35;;
21927;SDS011;11128;51.096;17.190;2023-06-04T00:53:15;8.98;;;4.07;;
21927;SDS011;11128;51.096;17.190;2023-06-04T00:58:17;9.55;;;3.75;;
21927;SDS011;11128;51.096;17.190;2023-06-04T01:03:19;11.48;;;3.63;;
21927;SDS011;11128;51.096;17.190;2023-06-04T01:08:24;10.50;;;3.60;;
21927;SDS011;11128;51.096;17.190;2023-06-04T01:13:27;6.32;;;2.83;;
21927;SDS011;11128;51.096;17.190;2023-06-04T01:18:28;5.25;;;2.47;;
21927;SDS011;11128;51.096;17.190;2023-06-04T01:23:40;7.32;;;2.70;;
21927;SDS011;11128;51.096;17.190;2023-06-04T01:28:59;4.32;;;2.42;;
21927;SDS011;11128;51.096;17.190;2023-06-04T01:34:02;4.80;;;2.20;;
21927;SDS011;11128;51.096;17.190;2023-06-04T01:39:04;5.13;;;2.60;;
21927;SDS011;11128;51.096;17.190;2023-06-04T01:44:05;3.15;;;1.92;;
21927;SDS011;11128;51.096;17.190;2023-06-04T01:49:06;4.30;;;2.03;;
21927;SDS011;11128;51.096;17.190;2023-06-04T01:54:08;5.28;;;2.30;;
21927;SDS011;11128;51.096;17.190;2023-06-04T01:59:09;3.92;;;2.30;;
21927;SDS011;11128;51.096;17.190;2023-06-04T02:04:12;4.50;;;2.03;;
21927;SDS011;11128;51.096;17.190;2023-06-04T02:09:13;3.97;;;2.10;;
21927;SDS011;11128;51.096;17.190;2023-06-04T02:14:15;5.85;;;2.83;;
21927;SDS011;11128;51.096;17.190;2023-06-04T02:19:16;7.15;;;2.70;;
21927;SDS011;11128;51.096;17.190;2023-06-04T02:24:19;7.03;;;2.65;;
21927;SDS011;11128;51.096;17.190;2023-06-04T02:29:21;5.25;;;2.75;;
21927;SDS011;11128;51.096;17.190;2023-06-04T02:34:22;7.20;;;2.80;;
21927;SDS011;11128;51.096;17.190;2023-06-04T02:39:24;8.93;;;3.22;;
21927;SDS011;11128;51.096;17.190;2023-06-04T02:44:25;6.43;;;3.55;;
21927;SDS011;11128;51.096;17.190;2023-06-04T02:49:27;6.35;;;3.05;;
21927;SDS011;11128;51.096;17.190;2023-06-04T02:54:28;7.30;;;2.92;;
21927;SDS011;11128;51.096;17.190;2023-06-04T02:59:30;7.68;;;3.30;;
21927;SDS011;11128;51.096;17.190;2023-06-04T03:04:31;9.70;;;3.60;;
21927;SDS011;11128;51.096;17.190;2023-06-04T03:09:34;6.75;;;3.15;;
21927;SDS011;11128;51.096;17.190;2023-06-04T03:14:36;7.32;;;2.90;;
21927;SDS011;11128;51.096;17.190;2023-06-04T03:19:37;5.85;;;3.40;;
21927;SDS011;11128;51.096;17.190;2023-06-04T03:24:41;8.00;;;3.22;;
21927;SDS011;11128;51.096;17.190;2023-06-04T03:29:42;5.93;;;3.00;;
21927;SDS011;11128;51.096;17.190;2023-06-04T03:34:44;3.75;;;2.55;;
21927;SDS011;11128;51.096;17.190;2023-06-04T03:39:45;4.75;;;2.53;;
21927;SDS011;11128;51.096;17.190;2023-06-04T03:44:47;6.30;;;2.30;;
21927;SDS011;11128;51.096;17.190;2023-06-04T03:49:48;7.10;;;2.88;;
21927;SDS011;11128;51.096;17.190;2023-06-04T03:54:49;9.13;;;2.60;;
21927;SDS011;11128;51.096;17.190;2023-06-04T03:59:52;5.05;;;2.55;;
21927;SDS011;11128;51.096;17.190;2023-06-04T04:04:53;5.65;;;2.30;;
21927;SDS011;11128;51.096;17.190;2023-06-04T04:09:55;6.45;;;2.17;;
21927;SDS011;11128;51.096;17.190;2023-06-04T04:14:56;3.97;;;2.40;;
21927;SDS011;11128;51.096;17.190;2023-06-04T04:19:58;4.90;;;2.38;;
21927;SDS011;11128;51.096;17.190;2023-06-04T04:24:59;6.03;;;2.90;;
21927;SDS011;11128;51.096;17.190;2023-06-04T04:30:02;10.10;;;3.90;;
21927;SDS011;11128;51.096;17.190;2023-06-04T04:35:05;6.63;;;3.42;;
21927;SDS011;11128;51.096;17.190;2023-06-04T04:40:08;6.20;;;3.25;;
21927;SDS011;11128;51.096;17.190;2023-06-04T04:45:10;6.55;;;3.13;;
21927;SDS011;11128;51.096;17.190;2023-06-04T04:50:12;5.28;;;3.22;;
21927;SDS011;11128;51.096;17.190;2023-06-04T04:55:14;4.07;;;2.58;;
21927;SDS011;11128;51.096;17.190;2023-06-04T05:00:15;4.38;;;2.30;;
21927;SDS011;11128;51.096;17.190;2023-06-04T05:05:18;3.65;;;2.20;;
21927;SDS011;11128;51.096;17.190;2023-06-04T05:10:19;7.72;;;2.58;;
21927;SDS011;11128;51.096;17.190;2023-06-04T05:15:20;3.85;;;2.00;;
21927;SDS011;11128;51.096;17.190;2023-06-04T05:20:23;5.40;;;2.15;;
21927;SDS011;11128;51.096;17.190;2023-06-04T05:25:25;5.57;;;2.28;;
21927;SDS011;11128;51.096;17.190;2023-06-04T05:30:27;4.32;;;2.20;;
21927;SDS011;11128;51.096;17.190;2023-06-04T05:35:29;6.70;;;2.05;;
21927;SDS011;11128;51.096;17.190;2023-06-04T05:40:30;6.57;;;2.08;;
21927;SDS011;11128;51.096;17.190;2023-06-04T05:45:32;5.07;;;1.85;;
21927;SDS011;11128;51.096;17.190;2023-06-04T05:50:33;2.92;;;1.67;;
21927;SDS011;11128;51.096;17.190;2023-06-04T05:55:35;3.75;;;1.70;;
21927;SDS011;11128;51.096;17.190;2023-06-04T06:00:36;5.53;;;2.10;;
21927;SDS011;11128;51.096;17.190;2023-06-04T06:05:38;4.57;;;1.88;;
21927;SDS011;11128;51.096;17.190;2023-06-04T06:10:39;4.75;;;1.70;;
21927;SDS011;11128;51.096;17.190;2023-06-04T06:15:40;3.83;;;1.67;;
21927;SDS011;11128;51.096;17.190;2023-06-04T06:20:42;4.22;;;1.95;;
21927;SDS011;11128;51.096;17.190;2023-06-04T06:25:43;3.85;;;1.58;;
21927;SDS011;11128;51.096;17.190;2023-06-04T06:30:46;4.43;;;1.70;;
21927;SDS011;11128;51.096;17.190;2023-06-04T06:35:48;4.72;;;1.55;;
21927;SDS011;11128;51.096;17.190;2023-06-04T06:40:49;3.17;;;1.80;;
21927;SDS011;11128;51.096;17.190;2023-06-04T06:45:50;3.40;;;1.77;;
21927;SDS011;11128;51.096;17.190;2023-06-04T06:50:51;4.85;;;1.67;;
21927;SDS011;11128;51.096;17.190;2023-06-04T06:55:53;3.88;;;1.77;;
21927;SDS011;11128;51.096;17.190;2023-06-04T07:00:54;2.58;;;1.50;;
21927;SDS011;11128;51.096;17.190;2023-06-04T07:05:57;3.15;;;1.58;;
21927;SDS011;11128;51.096;17.190;2023-06-04T07:10:58;4.60;;;1.35;;
21927;SDS011;11128;51.096;17.190;2023-06-04T07:16:02;4.68;;;1.50;;
21927;SDS011;11128;51.096;17.190;2023-06-04T07:21:03;2.08;;;1.25;;
21927;SDS011;11128;51.096;17.190;2023-06-04T07:26:04;3.40;;;1.50;;
21927;SDS011;11128;51.096;17.190;2023-06-04T07:31:05;3.20;;;1.88;;
21927;SDS011;11128;51.096;17.190;2023-06-04T07:36:07;4.72;;;1.60;;
21927;SDS011;11128;51.096;17.190;2023-06-04T07:41:08;2.20;;;1.17;;
21927;SDS011;11128;51.096;17.190;2023-06-04T07:46:10;1.90;;;1.30;;
21927;SDS011;11128;51.096;17.190;2023-06-04T07:51:12;3.22;;;1.23;;
21927;SDS011;11128;51.096;17.190;2023-06-04T07:56:14;4.03;;;1.55;;
21927;SDS011;11128;51.096;17.190;2023-06-04T08:01:15;3.45;;;1.52;;
21927;SDS011;11128;51.096;17.190;2023-06-04T08:06:24;4.60;;;1.52;;
21927;SDS011;11128;51.096;17.190;2023-06-04T08:11:27;2.97;;;1.33;;
21927;SDS011;11128;51.096;17.190;2023-06-04T08:16:28;4.22;;;1.40;;
21927;SDS011;11128;51.096;17.190;2023-06-04T08:21:32;4.68;;;1.30;;
21927;SDS011;11128;51.096;17.190;2023-06-04T08:26:33;3.03;;;1.35;;
21927;SDS011;11128;51.096;17.190;2023-06-04T08:31:37;3.75;;;1.35;;
21927;SDS011;11128;51.096;17.190;2023-06-04T08:36:40;1.83;;;1.15;;
21927;SDS011;11128;51.096;17.190;2023-06-04T08:41:43;4.20;;;1.10;;
21927;SDS011;11128;51.096;17.190;2023-06-04T08:46:45;2.00;;;1.27;;
21927;SDS011;11128;51.096;17.190;2023-06-04T08:51:51;2.30;;;1.38;;
21927;SDS011;11128;51.096;17.190;2023-06-04T08:56:52;1.80;;;0.95;;
21927;SDS011;11128;51.096;17.190;2023-06-04T09:01:56;2.58;;;1.20;;
21927;SDS011;11128;51.096;17.190;2023-06-04T09:07:02;1.58;;;0.80;;
21927;SDS011;11128;51.096;17.190;2023-06-04T09:12:03;2.22;;;1.10;;
21927;SDS011;11128;51.096;17.190;2023-06-04T09:17:11;5.30;;;1.25;;
21927;SDS011;11128;51.096;17.190;2023-06-04T09:22:12;2.45;;;1.00;;
21927;SDS011;11128;51.096;17.190;2023-06-04T09:27:13;2.55;;;1.05;;
21927;SDS011;11128;51.096;17.190;2023-06-04T09:32:25;1.02;;;0.75;;
21927;SDS011;11128;51.096;17.190;2023-06-04T09:37:32;1.98;;;1.00;;
21927;SDS011;11128;51.096;17.190;2023-06-04T09:43:07;2.08;;;0.80;;
21927;SDS011;11128;51.096;17.190;2023-06-04T09:48:02;1.73;;;1.10;;
21927;SDS011;11128;51.096;17.190;2023-06-04T09:53:13;3.13;;;1.00;;
21927;SDS011;11128;51.096;17.190;2023-06-04T09:58:16;3.85;;;1.48;;
21927;SDS011;11128;51.096;17.190;2023-06-04T10:03:18;2.95;;;0.90;;
21927;SDS011;11128;51.096;17.190;2023-06-04T10:08:26;3.10;;;1.00;;
21927;SDS011;11128;51.096;17.190;2023-06-04T10:13:31;1.85;;;0.98;;
21927;SDS011;11128;51.096;17.190;2023-06-04T10:18:41;4.03;;;1.08;;
21927;SDS011;11128;51.096;17.190;2023-06-04T10:23:44;2.10;;;1.10;;
21927;SDS011;11128;51.096;17.190;2023-06-04T10:28:46;1.55;;;1.00;;
21927;SDS011;11128;51.096;17.190;2023-06-04T10:33:47;2.47;;;1.13;;
21927;SDS011;11128;51.096;17.190;2023-06-04T10:38:54;1.52;;;0.90;;
21927;SDS011;11128;51.096;17.190;2023-06-04T10:44:00;2.00;;;0.88;;
21927;SDS011;11128;51.096;17.190;2023-06-04T10:49:02;2.80;;;1.05;;
21927;SDS011;11128;51.096;17.190;2023-06-04T10:54:03;2.08;;;1.02;;
21927;SDS011;11128;51.096;17.190;2023-06-04T10:59:14;1.95;;;1.10;;
21927;SDS011;11128;51.096;17.190;2023-06-04T11:04:23;2.42;;;1.20;;
21927;SDS011;11128;51.096;17.190;2023-06-04T11:09:26;2.03;;;1.00;;
21927;SDS011;11128;51.096;17.190;2023-06-04T11:14:28;4.53;;;0.98;;
21927;SDS011;11128;51.096;17.190;2023-06-04T11:19:35;2.08;;;1.08;;
21927;SDS011;11128;51.096;17.190;2023-06-04T11:24:37;1.25;;;0.85;;
21927;SDS011;11128;51.096;17.190;2023-06-04T11:29:38;2.03;;;1.00;;
21927;SDS011;11128;51.096;17.190;2023-06-04T11:34:39;1.83;;;0.90;;
21927;SDS011;11128;51.096;17.190;2023-06-04T11:39:41;1.92;;;1.00;;
21927;SDS011;11128;51.096;17.190;2023-06-04T11:44:44;4.43;;;2.67;;
21927;SDS011;11128;51.096;17.190;2023-06-04T11:49:55;6.20;;;2.95;;
21927;SDS011;11128;51.096;17.190;2023-06-04T11:54:57;5.93;;;2.42;;
21927;SDS011;11128;51.096;17.190;2023-06-04T11:59:58;2.85;;;1.23;;
21927;SDS011;11128;51.096;17.190;2023-06-04T12:05:10;1.42;;;1.08;;
21927;SDS011;11128;51.096;17.190;2023-06-04T12:10:19;18.73;;;9.15;;
21927;SDS011;11128;51.096;17.190;2023-06-04T12:15:21;3.05;;;1.58;;
21927;SDS011;11128;51.096;17.190;2023-06-04T12:20:34;1.38;;;1.08;;
21927;SDS011;11128;51.096;17.190;2023-06-04T12:25:37;1.30;;;1.20;;
21927;SDS011;11128;51.096;17.190;2023-06-04T12:30:39;3.25;;;1.50;;
21927;SDS011;11128;51.096;17.190;2023-06-04T12:35:41;4.85;;;1.27;;
21927;SDS011;11128;51.096;17.190;2023-06-04T12:40:42;4.18;;;1.00;;
21927;SDS011;11128;51.096;17.190;2023-06-04T12:45:44;1.17;;;0.90;;
21927;SDS011;11128;51.096;17.190;2023-06-04T12:50:46;1.98;;;1.10;;
21927;SDS011;11128;51.096;17.190;2023-06-04T12:55:48;1.35;;;1.13;;
21927;SDS011;11128;51.096;17.190;2023-06-04T13:00:49;1.10;;;1.00;;
21927;SDS011;11128;51.096;17.190;2023-06-04T13:05:50;3.10;;;1.00;;
21927;SDS011;11128;51.096;17.190;2023-06-04T13:10:54;2.45;;;1.40;;
21927;SDS011;11128;51.096;17.190;2023-06-04T13:15:56;2.95;;;1.60;;
21927;SDS011;11128;51.096;17.190;2023-06-04T13:20:57;2.97;;;1.00;;
21927;SDS011;11128;51.096;17.190;2023-06-04T13:25:58;1.30;;;0.90;;
21927;SDS011;11128;51.096;17.190;2023-06-04T13:31:01;1.77;;;1.00;;
21927;SDS011;11128;51.096;17.190;2023-06-04T13:36:03;1.77;;;1.15;;
21927;SDS011;11128;51.096;17.190;2023-06-04T13:41:05;2.25;;;1.00;;
21927;SDS011;11128;51.096;17.190;2023-06-04T13:46:06;3.42;;;1.05;;
21927;SDS011;11128;51.096;17.190;2023-06-04T13:51:07;1.52;;;1.00;;
21927;SDS011;11128;51.096;17.190;2023-06-04T13:56:09;259.75;;;209.93;;
21927;SDS011;11128;51.096;17.190;2023-06-04T14:01:10;247.05;;;189.90;;
21927;SDS011;11128;51.096;17.190;2023-06-04T14:06:12;225.95;;;175.18;;
21927;SDS011;11128;51.096;17.190;2023-06-04T14:11:14;50.88;;;34.28;;
21927;SDS011;11128;51.096;17.190;2023-06-04T14:16:15;10.20;;;9.13;;
21927;SDS011;11128;51.096;17.190;2023-06-04T14:21:16;2.45;;;2.25;;
21927;SDS011;11128;51.096;17.190;2023-06-04T14:26:18;7.10;;;4.43;;
21927;SDS011;11128;51.096;17.190;2023-06-04T14:31:21;3.42;;;1.58;;
21927;SDS011;11128;51.096;17.190;2023-06-04T14:36:22;5.28;;;1.50;;
21927;SDS011;11128;51.096;17.190;2023-06-04T14:41:24;1.60;;;1.30;;
21927;SDS011;11128;51.096;17.190;2023-06-04T14:46:25;4.57;;;2.20;;
21927;SDS011;11128;51.096;17.190;2023-06-04T14:51:27;3.22;;;1.30;;
21927;SDS011;11128;51.096;17.190;2023-06-04T14:56:28;2.83;;;1.15;;
21927;SDS011;11128;51.096;17.190;2023-06-04T15:01:31;4.75;;;2.78;;
21927;SDS011;11128;51.096;17.190;2023-06-04T15:06:32;3.67;;;1.88;;
21927;SDS011;11128;51.096;17.190;2023-06-04T15:11:34;3.13;;;1.30;;
21927;SDS011;11128;51.096;17.190;2023-06-04T15:16:35;2.08;;;1.30;;
21927;SDS011;11128;51.096;17.190;2023-06-04T15:21:37;2.85;;;1.33;;
21927;SDS011;11128;51.096;17.190;2023-06-04T15:26:38;1.13;;;0.73;;
21927;SDS011;11128;51.096;17.190;2023-06-04T15:31:40;2.67;;;0.98;;
21927;SDS011;11128;51.096;17.190;2023-06-04T15:36:42;1.73;;;1.20;;
21927;SDS011;11128;51.096;17.190;2023-06-04T15:41:43;1.23;;;0.98;;
21927;SDS011;11128;51.096;17.190;2023-06-04T15:46:44;2.45;;;1.27;;
21927;SDS011;11128;51.096;17.190;2023-06-04T15:51:46;1.10;;;1.00;;
21927;SDS011;11128;51.096;17.190;2023-06-04T15:56:48;1.55;;;1.00;;
21927;SDS011;11128;51.096;17.190;2023-06-04T16:01:52;1.08;;;0.85;;
21927;SDS011;11128;51.096;17.190;2023-06-04T16:06:53;2.10;;;0.90;;
21927;SDS011;11128;51.096;17.190;2023-06-04T16:11:55;1.63;;;0.90;;
21927;SDS011;11128;51.096;17.190;2023-06-04T16:16:56;1.45;;;1.10;;
21927;SDS011;11128;51.096;17.190;2023-06-04T16:21:58;1.85;;;0.93;;
21927;SDS011;11128;51.096;17.190;2023-06-04T16:26:59;2.80;;;1.73;;
21927;SDS011;11128;51.096;17.190;2023-06-04T16:32:01;3.60;;;1.13;;
21927;SDS011;11128;51.096;17.190;2023-06-04T16:37:02;3.25;;;1.00;;
21927;SDS011;11128;51.096;17.190;2023-06-04T16:42:04;3.10;;;1.38;;
21927;SDS011;11128;51.096;17.190;2023-06-04T16:47:05;3.65;;;1.20;;
21927;SDS011;11128;51.096;17.190;2023-06-04T16:52:07;2.67;;;1.10;;
21927;SDS011;11128;51.096;17.190;2023-06-04T16:57:09;5.60;;;1.20;;
21927;SDS011;11128;51.096;17.190;2023-06-04T17:02:11;3.55;;;1.70;;
21927;SDS011;11128;51.096;17.190;2023-06-04T17:07:13;2.70;;;1.10;;
21927;SDS011;11128;51.096;17.190;2023-06-04T17:12:14;1.58;;;0.85;;
21927;SDS011;11128;51.096;17.190;2023-06-04T17:17:16;2.15;;;1.00;;
21927;SDS011;11128;51.096;17.190;2023-06-04T17:22:17;2.63;;;1.20;;
21927;SDS011;11128;51.096;17.190;2023-06-04T17:27:19;3.05;;;1.08;;
21927;SDS011;11128;51.096;17.190;2023-06-04T17:32:20;4.57;;;1.20;;
21927;SDS011;11128;51.096;17.190;2023-06-04T17:37:22;3.55;;;1.08;;
21927;SDS011;11128;51.096;17.190;2023-06-04T17:42:24;3.47;;;1.23;;
21927;SDS011;11128;51.096;17.190;2023-06-04T17:47:26;1.45;;;1.05;;
21927;SDS011;11128;51.096;17.190;2023-06-04T17:52:27;3.28;;;1.00;;
21927;SDS011;11128;51.096;17.190;2023-06-04T17:57:29;1.45;;;0.85;;
21927;SDS011;11128;51.096;17.190;2023-06-04T18:02:31;2.80;;;1.17;;
21927;SDS011;11128;51.096;17.190;2023-06-04T18:07:32;2.95;;;1.08;;
21927;SDS011;11128;51.096;17.190;2023-06-04T18:12:34;3.67;;;1.13;;
21927;SDS011;11128;51.096;17.190;2023-06-04T18:17:36;2.45;;;1.00;;
21927;SDS011;11128;51.096;17.190;2023-06-04T18:22:37;3.75;;;1.15;;
21927;SDS011;11128;51.096;17.190;2023-06-04T18:27:39;1.50;;;1.30;;
21927;SDS011;11128;51.096;17.190;2023-06-04T18:32:41;2.85;;;1.15;;
21927;SDS011;11128;51.096;17.190;2023-06-04T18:37:42;2.35;;;1.17;;
21927;SDS011;11128;51.096;17.190;2023-06-04T18:42:44;4.82;;;1.48;;
21927;SDS011;11128;51.096;17.190;2023-06-04T18:47:46;2.40;;;1.10;;
21927;SDS011;11128;51.096;17.190;2023-06-04T18:52:49;3.60;;;1.38;;
21927;SDS011;11128;51.096;17.190;2023-06-04T18:57:50;2.08;;;1.00;;
21927;SDS011;11128;51.096;17.190;2023-06-04T19:02:52;3.53;;;1.40;;
21927;SDS011;11128;51.096;17.190;2023-06-04T19:07:53;6.03;;;1.77;;
21927;SDS011;11128;51.096;17.190;2023-06-04T19:12:55;8.05;;;1.40;;
21927;SDS011;11128;51.096;17.190;2023-06-04T19:17:56;3.40;;;1.50;;
21927;SDS011;11128;51.096;17.190;2023-06-04T19:22:58;6.05;;;2.60;;
21927;SDS011;11128;51.096;17.190;2023-06-04T19:27:59;4.57;;;1.90;;
21927;SDS011;11128;51.096;17.190;2023-06-04T19:33:00;3.58;;;1.70;;
21927;SDS011;11128;51.096;17.190;2023-06-04T19:38:01;2.70;;;1.50;;
21927;SDS011;11128;51.096;17.190;2023-06-04T19:43:03;4.22;;;1.50;;
21927;SDS011;11128;51.096;17.190;2023-06-04T19:48:04;6.90;;;1.77;;
21927;SDS011;11128;51.096;17.190;2023-06-04T19:53:06;4.05;;;1.88;;
21927;SDS011;11128;51.096;17.190;2023-06-04T19:58:08;5.18;;;1.35;;
21927;SDS011;11128;51.096;17.190;2023-06-04T20:03:13;3.05;;;1.30;;
21927;SDS011;11128;51.096;17.190;2023-06-04T20:08:14;1.80;;;1.20;;
21927;SDS011;11128;51.096;17.190;2023-06-04T20:13:17;3.47;;;1.40;;
21927;SDS011;11128;51.096;17.190;2023-06-04T20:18:19;1.60;;;1.25;;
21927;SDS011;11128;51.096;17.190;2023-06-04T20:23:21;2.63;;;1.10;;
21927;SDS011;11128;51.096;17.190;2023-06-04T20:28:22;3.35;;;1.42;;
21927;SDS011;11128;51.096;17.190;2023-06-04T20:33:23;4.50;;;1.23;;
21927;SDS011;11128;51.096;17.190;2023-06-04T20:38:26;2.95;;;1.50;;
21927;SDS011;11128;51.096;17.190;2023-06-04T20:43:28;2.08;;;1.33;;
21927;SDS011;11128;51.096;17.190;2023-06-04T20:48:48;9.10;;;2.00;;
21927;SDS011;11128;51.096;17.190;2023-06-04T20:53:49;5.57;;;1.85;;
21927;SDS011;11128;51.096;17.190;2023-06-04T20:58:51;6.65;;;1.75;;
21927;SDS011;11128;51.096;17.190;2023-06-04T21:03:52;4.95;;;1.58;;
21927;SDS011;11128;51.096;17.190;2023-06-04T21:08:53;3.70;;;1.23;;
21927;SDS011;11128;51.096;17.190;2023-06-04T21:13:55;2.65;;;1.80;;
21927;SDS011;11128;51.096;17.190;2023-06-04T21:18:57;2.97;;;1.55;;
21927;SDS011;11128;51.096;17.190;2023-06-04T21:23:58;1.30;;;1.00;;
21927;SDS011;11128;51.096;17.190;2023-06-04T21:28:59;1.92;;;1.65;;
21927;SDS011;11128;51.096;17.190;2023-06-04T21:34:00;3.50;;;1.80;;
21927;SDS011;11128;51.096;17.190;2023-06-04T21:39:01;1.98;;;1.35;;
21927;SDS011;11128;51.096;17.190;2023-06-04T21:44:03;3.95;;;1.88;;
21927;SDS011;11128;51.096;17.190;2023-06-04T21:49:04;3.50;;;2.00;;
21927;SDS011;11128;51.096;17.190;2023-06-04T21:54:05;4.15;;;2.03;;
21927;SDS011;11128;51.096;17.190;2023-06-04T21:59:09;5.70;;;2.38;;
21927;SDS011;11128;51.096;17.190;2023-06-04T22:04:10;4.97;;;2.40;;
21927;SDS011;11128;51.096;17.190;2023-06-04T22:09:11;4.10;;;2.25;;
21927;SDS011;11128;51.096;17.190;2023-06-04T22:14:12;6.53;;;2.95;;
21927;SDS011;11128;51.096;17.190;2023-06-04T22:19:14;5.65;;;2.63;;
21927;SDS011;11128;51.096;17.190;2023-06-04T22:24:15;6.65;;;2.58;;
21927;SDS011;11128;51.096;17.190;2023-06-04T22:29:17;6.82;;;3.03;;
21927;SDS011;11128;51.096;17.190;2023-06-04T22:34:18;9.85;;;2.70;;
21927;SDS011;11128;51.096;17.190;2023-06-04T22:39:19;6.47;;;2.83;;
21927;SDS011;11128;51.096;17.190;2023-06-04T22:44:21;7.50;;;2.85;;
21927;SDS011;11128;51.096;17.190;2023-06-04T22:49:22;6.40;;;2.70;;
21927;SDS011;11128;51.096;17.190;2023-06-04T22:54:23;7.50;;;2.90;;
21927;SDS011;11128;51.096;17.190;2023-06-04T22:59:24;8.40;;;2.75;;
21927;SDS011;11128;51.096;17.190;2023-06-04T23:04:27;5.82;;;2.63;;
21927;SDS011;11128;51.096;17.190;2023-06-04T23:09:28;4.28;;;2.60;;
21927;SDS011;11128;51.096;17.190;2023-06-04T23:14:29;6.45;;;2.42;;
21927;SDS011;11128;51.096;17.190;2023-06-04T23:19:30;8.85;;;2.22;;
21927;SDS011;11128;51.096;17.190;2023-06-04T23:24:32;6.78;;;2.78;;
21927;SDS011;11128;51.096;17.190;2023-06-04T23:29:33;4.57;;;2.47;;
21927;SDS011;11128;51.096;17.190;2023-06-04T23:34:35;3.40;;;2.08;;
21927;SDS011;11128;51.096;17.190;2023-06-04T23:39:36;3.58;;;2.15;;
21927;SDS011;11128;51.096;17.190;2023-06-04T23:44:37;5.82;;;2.63;;
21927;SDS011;11128;51.096;17.190;2023-06-04T23:49:38;4.18;;;2.15;;
21927;SDS011;11128;51.096;17.190;2023-06-04T23:54:40;2.60;;;1.73;;
21927;SDS011;11128;51.096;17.190;2023-06-04T23:59:41;7.10;;;2.03;;
